sensor_id;sensor_type;location;lat;lon;timestamp;temperature;humidity
59309;DHT22;48433;53.016;-2.260;2022-07-18T01:01:54;19.60;88.00
59309;DHT22;48433;53.016;-2.260;2022-07-18T01:04:25;19.60;88.40
59309;DHT22;48433;53.016;-2.260;2022-07-18T01:06:53;19.60;89.20
59309;DHT22;48433;53.016;-2.260;2022-07-18T01:09:21;19.50;89.30
59309;DHT22;48433;53.016;-2.260;2022-07-18T01:11:49;19.40;90.00
59309;DHT22;48433;53.016;-2.260;2022-07-18T01:14:17;19.30;90.30
59309;DHT22;48433;53.016;-2.260;2022-07-18T01:16:45;19.20;90.70
59309;DHT22;48433;53.016;-2.260;2022-07-18T01:19:13;19.10;91.20
59309;DHT22;48433;53.016;-2.260;2022-07-18T01:21:41;19.00;91.40
59309;DHT22;48433;53.016;-2.260;2022-07-18T01:24:09;18.90;91.70
59309;DHT22;48433;53.016;-2.260;2022-07-18T01:26:38;18.80;92.00
59309;DHT22;48433;53.016;-2.260;2022-07-18T01:29:06;18.70;92.40
59309;DHT22;48433;53.016;-2.260;2022-07-18T01:31:34;18.60;92.80
59309;DHT22;48433;53.016;-2.260;2022-07-18T01:34:02;18.50;93.20
59309;DHT22;48433;53.016;-2.260;2022-07-18T01:36:30;18.40;93.50
59309;DHT22;48433;53.016;-2.260;2022-07-18T01:38:59;18.40;93.70
59309;DHT22;48433;53.016;-2.260;2022-07-18T01:42:04;18.40;93.80
59309;DHT22;48433;53.016;-2.260;2022-07-18T01:44:34;18.40;93.90
59309;DHT22;48433;53.016;-2.260;2022-07-18T01:47:05;18.40;93.90
59309;DHT22;48433;53.016;-2.260;2022-07-18T01:49:34;18.50;93.90
59309;DHT22;48433;53.016;-2.260;2022-07-18T01:52:03;18.40;94.00
59309;DHT22;48433;53.016;-2.260;2022-07-18T01:54:33;18.30;94.20
59309;DHT22;48433;53.016;-2.260;2022-07-18T01:57:03;18.20;94.50
59309;DHT22;48433;53.016;-2.260;2022-07-18T01:59:31;18.10;94.90
59309;DHT22;48433;53.016;-2.260;2022-07-18T02:02:03;18.00;95.20
59309;DHT22;48433;53.016;-2.260;2022-07-18T02:04:35;17.80;95.40
59309;DHT22;48433;53.016;-2.260;2022-07-18T02:07:22;17.80;95.70
59309;DHT22;48433;53.016;-2.260;2022-07-18T02:10:00;17.80;95.90
59309;DHT22;48433;53.016;-2.260;2022-07-18T02:12:28;17.80;96.10
59309;DHT22;48433;53.016;-2.260;2022-07-18T02:14:57;17.70;96.20
59309;DHT22;48433;53.016;-2.260;2022-07-18T02:17:25;17.70;96.30
59309;DHT22;48433;53.016;-2.260;2022-07-18T02:19:53;17.70;96.40
59309;DHT22;48433;53.016;-2.260;2022-07-18T02:22:22;17.70;96.50
59309;DHT22;48433;53.016;-2.260;2022-07-18T02:24:52;17.70;96.60
59309;DHT22;48433;53.016;-2.260;2022-07-18T02:27:21;17.70;96.70
59309;DHT22;48433;53.016;-2.260;2022-07-18T02:29:51;17.60;96.80
59309;DHT22;48433;53.016;-2.260;2022-07-18T02:32:19;17.60;96.80
59309;DHT22;48433;53.016;-2.260;2022-07-18T02:34:47;17.50;96.90
59309;DHT22;48433;53.016;-2.260;2022-07-18T02:37:16;17.50;97.20
59309;DHT22;48433;53.016;-2.260;2022-07-18T02:39:44;17.40;97.40
59309;DHT22;48433;53.016;-2.260;2022-07-18T02:42:12;17.40;97.80
59309;DHT22;48433;53.016;-2.260;2022-07-18T02:44:40;17.40;97.60
59309;DHT22;48433;53.016;-2.260;2022-07-18T02:47:09;17.40;97.70
59309;DHT22;48433;53.016;-2.260;2022-07-18T02:49:37;17.40;97.60
59309;DHT22;48433;53.016;-2.260;2022-07-18T02:52:08;17.40;97.60
59309;DHT22;48433;53.016;-2.260;2022-07-18T02:54:38;17.30;97.60
59309;DHT22;48433;53.016;-2.260;2022-07-18T02:57:06;17.30;97.70
59309;DHT22;48433;53.016;-2.260;2022-07-18T02:59:34;17.20;97.80
59309;DHT22;48433;53.016;-2.260;2022-07-18T03:02:02;17.20;97.90
59309;DHT22;48433;53.016;-2.260;2022-07-18T03:04:32;17.10;98.10
59309;DHT22;48433;53.016;-2.260;2022-07-18T03:07:00;17.10;98.20
59309;DHT22;48433;53.016;-2.260;2022-07-18T03:09:28;17.10;98.50
59309;DHT22;48433;53.016;-2.260;2022-07-18T03:11:57;17.00;98.40
59309;DHT22;48433;53.016;-2.260;2022-07-18T03:14:26;17.00;98.50
59309;DHT22;48433;53.016;-2.260;2022-07-18T03:16:54;16.90;98.50
59309;DHT22;48433;53.016;-2.260;2022-07-18T03:19:23;16.80;99.20
59309;DHT22;48433;53.016;-2.260;2022-07-18T03:22:02;16.60;98.70
59309;DHT22;48433;53.016;-2.260;2022-07-18T03:24:30;16.60;99.10
59309;DHT22;48433;53.016;-2.260;2022-07-18T03:26:58;16.50;99.30
59309;DHT22;48433;53.016;-2.260;2022-07-18T03:29:26;16.40;99.50
59309;DHT22;48433;53.016;-2.260;2022-07-18T03:35:46;16.30;99.90
59309;DHT22;48433;53.016;-2.260;2022-07-18T03:42:58;16.10;99.90
59309;DHT22;48433;53.016;-2.260;2022-07-18T03:45:29;16.00;99.90
59309;DHT22;48433;53.016;-2.260;2022-07-18T03:48:00;16.00;99.90
59309;DHT22;48433;53.016;-2.260;2022-07-18T03:50:31;15.90;99.90
59309;DHT22;48433;53.016;-2.260;2022-07-18T03:53:04;15.90;99.90
59309;DHT22;48433;53.016;-2.260;2022-07-18T03:55:34;15.90;99.90
59309;DHT22;48433;53.016;-2.260;2022-07-18T03:58:03;15.90;99.90
59309;DHT22;48433;53.016;-2.260;2022-07-18T04:00:31;15.90;99.90
59309;DHT22;48433;53.016;-2.260;2022-07-18T04:02:59;15.80;99.90
59309;DHT22;48433;53.016;-2.260;2022-07-18T04:05:32;15.80;99.90
59309;DHT22;48433;53.016;-2.260;2022-07-18T04:08:02;15.80;99.90
59309;DHT22;48433;53.016;-2.260;2022-07-18T04:10:30;15.80;99.90
59309;DHT22;48433;53.016;-2.260;2022-07-18T04:16:02;15.70;99.90
59309;DHT22;48433;53.016;-2.260;2022-07-18T04:18:33;15.70;99.90
59309;DHT22;48433;53.016;-2.260;2022-07-18T04:22:05;15.70;99.90
59309;DHT22;48433;53.016;-2.260;2022-07-18T04:28:53;15.60;99.90
59309;DHT22;48433;53.016;-2.260;2022-07-18T05:35:44;16.40;99.90
59309;DHT22;48433;53.016;-2.260;2022-07-18T05:38:13;16.50;99.90
59309;DHT22;48433;53.016;-2.260;2022-07-18T05:40:42;16.70;99.90
59309;DHT22;48433;53.016;-2.260;2022-07-18T05:43:11;16.80;99.90
59309;DHT22;48433;53.016;-2.260;2022-07-18T05:45:41;16.90;99.80
59309;DHT22;48433;53.016;-2.260;2022-07-18T05:48:11;17.10;99.40
59309;DHT22;48433;53.016;-2.260;2022-07-18T05:50:39;17.20;99.00
59309;DHT22;48433;53.016;-2.260;2022-07-18T05:53:07;17.40;98.60
59309;DHT22;48433;53.016;-2.260;2022-07-18T05:55:45;17.50;98.10
59309;DHT22;48433;53.016;-2.260;2022-07-18T05:58:16;17.70;97.50
59309;DHT22;48433;53.016;-2.260;2022-07-18T06:00:44;17.80;97.10
59309;DHT22;48433;53.016;-2.260;2022-07-18T06:03:13;17.90;97.00
59309;DHT22;48433;53.016;-2.260;2022-07-18T06:05:53;18.00;97.20
59309;DHT22;48433;53.016;-2.260;2022-07-18T06:08:27;18.10;97.40
59309;DHT22;48433;53.016;-2.260;2022-07-18T06:10:57;18.10;97.70
59309;DHT22;48433;53.016;-2.260;2022-07-18T06:13:25;18.10;97.60
59309;DHT22;48433;53.016;-2.260;2022-07-18T06:15:54;18.20;97.50
59309;DHT22;48433;53.016;-2.260;2022-07-18T06:18:22;18.30;97.00
59309;DHT22;48433;53.016;-2.260;2022-07-18T06:20:51;18.40;96.60
59309;DHT22;48433;53.016;-2.260;2022-07-18T06:23:20;18.50;96.10
59309;DHT22;48433;53.016;-2.260;2022-07-18T06:25:48;18.60;95.40
59309;DHT22;48433;53.016;-2.260;2022-07-18T06:28:19;18.70;95.00
59309;DHT22;48433;53.016;-2.260;2022-07-18T06:30:47;18.90;94.90
59309;DHT22;48433;53.016;-2.260;2022-07-18T06:33:15;19.00;94.50
59309;DHT22;48433;53.016;-2.260;2022-07-18T06:35:43;19.10;94.00
59309;DHT22;48433;53.016;-2.260;2022-07-18T06:38:15;19.20;93.10
59309;DHT22;48433;53.016;-2.260;2022-07-18T06:40:48;19.40;92.30
59309;DHT22;48433;53.016;-2.260;2022-07-18T06:43:19;19.50;91.80
59309;DHT22;48433;53.016;-2.260;2022-07-18T06:45:48;19.70;90.60
59309;DHT22;48433;53.016;-2.260;2022-07-18T06:48:16;19.80;90.20
59309;DHT22;48433;53.016;-2.260;2022-07-18T06:50:47;20.00;88.80
59309;DHT22;48433;53.016;-2.260;2022-07-18T06:53:15;20.10;87.40
59309;DHT22;48433;53.016;-2.260;2022-07-18T06:55:43;20.20;87.10
59309;DHT22;48433;53.016;-2.260;2022-07-18T06:58:11;20.30;86.00
59309;DHT22;48433;53.016;-2.260;2022-07-18T07:00:41;20.40;83.80
59309;DHT22;48433;53.016;-2.260;2022-07-18T07:03:09;20.40;81.80
59309;DHT22;48433;53.016;-2.260;2022-07-18T07:05:37;20.50;80.10
59309;DHT22;48433;53.016;-2.260;2022-07-18T07:08:06;20.50;79.40
59309;DHT22;48433;53.016;-2.260;2022-07-18T07:10:44;20.60;79.50
59309;DHT22;48433;53.016;-2.260;2022-07-18T07:13:12;20.60;78.70
59309;DHT22;48433;53.016;-2.260;2022-07-18T07:15:44;20.60;77.80
59309;DHT22;48433;53.016;-2.260;2022-07-18T07:18:30;20.70;77.60
59309;DHT22;48433;53.016;-2.260;2022-07-18T07:20:59;20.80;77.10
59309;DHT22;48433;53.016;-2.260;2022-07-18T07:23:27;20.90;75.70
59309;DHT22;48433;53.016;-2.260;2022-07-18T07:25:55;21.00;75.00
59309;DHT22;48433;53.016;-2.260;2022-07-18T07:28:23;21.10;74.40
59309;DHT22;48433;53.016;-2.260;2022-07-18T07:30:51;21.10;74.90
59309;DHT22;48433;53.016;-2.260;2022-07-18T07:33:19;21.30;74.50
59309;DHT22;48433;53.016;-2.260;2022-07-18T07:36:19;21.40;73.20
59309;DHT22;48433;53.016;-2.260;2022-07-18T07:38:49;21.60;72.70
59309;DHT22;48433;53.016;-2.260;2022-07-18T07:41:17;21.80;72.00
59309;DHT22;48433;53.016;-2.260;2022-07-18T07:43:45;22.00;70.90
59309;DHT22;48433;53.016;-2.260;2022-07-18T07:46:13;22.20;70.60
59309;DHT22;48433;53.016;-2.260;2022-07-18T07:48:43;22.30;70.00
59309;DHT22;48433;53.016;-2.260;2022-07-18T07:51:11;22.50;69.30
59309;DHT22;48433;53.016;-2.260;2022-07-18T07:53:39;22.70;68.60
59309;DHT22;48433;53.016;-2.260;2022-07-18T07:56:06;22.80;68.10
59309;DHT22;48433;53.016;-2.260;2022-07-18T07:58:34;22.90;67.90
59309;DHT22;48433;53.016;-2.260;2022-07-18T08:01:02;23.10;67.40
59309;DHT22;48433;53.016;-2.260;2022-07-18T08:03:30;23.20;66.90
59309;DHT22;48433;53.016;-2.260;2022-07-18T08:05:58;23.40;64.40
59309;DHT22;48433;53.016;-2.260;2022-07-18T08:08:26;23.50;62.80
59309;DHT22;48433;53.016;-2.260;2022-07-18T08:10:54;23.70;62.00
59309;DHT22;48433;53.016;-2.260;2022-07-18T08:13:22;23.90;60.50
59309;DHT22;48433;53.016;-2.260;2022-07-18T08:15:50;24.10;59.70
59309;DHT22;48433;53.016;-2.260;2022-07-18T08:18:20;24.30;58.70
59309;DHT22;48433;53.016;-2.260;2022-07-18T08:20:49;24.50;58.20
59309;DHT22;48433;53.016;-2.260;2022-07-18T08:23:17;24.70;57.40
59309;DHT22;48433;53.016;-2.260;2022-07-18T08:25:45;24.80;57.20
59309;DHT22;48433;53.016;-2.260;2022-07-18T08:28:17;25.10;56.50
59309;DHT22;48433;53.016;-2.260;2022-07-18T08:30:45;25.30;55.80
59309;DHT22;48433;53.016;-2.260;2022-07-18T08:33:14;25.50;54.80
59309;DHT22;48433;53.016;-2.260;2022-07-18T08:35:44;25.70;53.30
59309;DHT22;48433;53.016;-2.260;2022-07-18T08:38:12;25.90;52.20
59309;DHT22;48433;53.016;-2.260;2022-07-18T08:40:40;26.00;51.40
59309;DHT22;48433;53.016;-2.260;2022-07-18T08:43:09;26.20;50.30
59309;DHT22;48433;53.016;-2.260;2022-07-18T08:45:51;26.40;48.60
59309;DHT22;48433;53.016;-2.260;2022-07-18T08:48:19;26.60;46.10
59309;DHT22;48433;53.016;-2.260;2022-07-18T08:50:48;26.80;44.90
59309;DHT22;48433;53.016;-2.260;2022-07-18T08:53:18;26.90;43.60
59309;DHT22;48433;53.016;-2.260;2022-07-18T08:55:47;27.10;42.20
59309;DHT22;48433;53.016;-2.260;2022-07-18T08:58:16;27.30;42.00
59309;DHT22;48433;53.016;-2.260;2022-07-18T09:01:07;27.40;40.80
59309;DHT22;48433;53.016;-2.260;2022-07-18T09:03:35;27.70;40.20
59309;DHT22;48433;53.016;-2.260;2022-07-18T09:06:05;27.90;37.70
59309;DHT22;48433;53.016;-2.260;2022-07-18T09:08:35;28.00;36.20
59309;DHT22;48433;53.016;-2.260;2022-07-18T09:11:09;28.10;35.80
59309;DHT22;48433;53.016;-2.260;2022-07-18T09:13:57;28.20;36.30
59309;DHT22;48433;53.016;-2.260;2022-07-18T14:30:54;42.50;18.40
59309;DHT22;48433;53.016;-2.260;2022-07-18T14:33:22;42.80;18.60
59309;DHT22;48433;53.016;-2.260;2022-07-18T14:35:51;42.90;18.40
59309;DHT22;48433;53.016;-2.260;2022-07-18T14:38:19;43.00;18.40
59309;DHT22;48433;53.016;-2.260;2022-07-18T14:41:06;43.20;18.50
59309;DHT22;48433;53.016;-2.260;2022-07-18T14:43:37;43.20;18.10
59309;DHT22;48433;53.016;-2.260;2022-07-18T14:46:06;43.10;18.50
59309;DHT22;48433;53.016;-2.260;2022-07-18T14:48:34;43.20;18.60
59309;DHT22;48433;53.016;-2.260;2022-07-18T14:51:02;43.30;18.40
59309;DHT22;48433;53.016;-2.260;2022-07-18T14:53:30;43.40;18.30
59309;DHT22;48433;53.016;-2.260;2022-07-18T14:56:03;43.30;18.30
59309;DHT22;48433;53.016;-2.260;2022-07-18T14:58:31;42.70;18.40
59309;DHT22;48433;53.016;-2.260;2022-07-18T15:00:59;42.00;18.80
59309;DHT22;48433;53.016;-2.260;2022-07-18T15:03:27;41.90;19.30
59309;DHT22;48433;53.016;-2.260;2022-07-18T15:06:23;41.80;19.20
59309;DHT22;48433;53.016;-2.260;2022-07-18T15:08:51;41.30;19.40
59309;DHT22;48433;53.016;-2.260;2022-07-18T15:11:18;41.10;19.90
59309;DHT22;48433;53.016;-2.260;2022-07-18T15:13:49;40.90;20.10
59309;DHT22;48433;53.016;-2.260;2022-07-18T15:16:42;41.00;20.60
59309;DHT22;48433;53.016;-2.260;2022-07-18T15:19:10;41.20;20.70
59309;DHT22;48433;53.016;-2.260;2022-07-18T15:21:38;41.30;20.80
59309;DHT22;48433;53.016;-2.260;2022-07-18T15:24:06;41.30;20.80
59309;DHT22;48433;53.016;-2.260;2022-07-18T15:26:35;41.30;20.70
59309;DHT22;48433;53.016;-2.260;2022-07-18T15:29:04;41.20;20.40
59309;DHT22;48433;53.016;-2.260;2022-07-18T15:31:34;41.20;20.60
59309;DHT22;48433;53.016;-2.260;2022-07-18T15:34:03;41.10;20.60
59309;DHT22;48433;53.016;-2.260;2022-07-18T15:36:31;41.10;20.50
59309;DHT22;48433;53.016;-2.260;2022-07-18T15:38:59;41.00;20.70
59309;DHT22;48433;53.016;-2.260;2022-07-18T15:41:27;41.00;21.30
59309;DHT22;48433;53.016;-2.260;2022-07-18T15:43:54;41.10;20.70
59309;DHT22;48433;53.016;-2.260;2022-07-18T15:46:25;41.20;20.50
59309;DHT22;48433;53.016;-2.260;2022-07-18T15:48:53;41.30;20.40
59309;DHT22;48433;53.016;-2.260;2022-07-18T15:51:24;41.30;19.90
59309;DHT22;48433;53.016;-2.260;2022-07-18T15:53:55;41.00;19.80
59309;DHT22;48433;53.016;-2.260;2022-07-18T15:56:24;40.90;19.80
59309;DHT22;48433;53.016;-2.260;2022-07-18T15:58:52;40.80;19.70
59309;DHT22;48433;53.016;-2.260;2022-07-18T16:01:20;40.70;19.90
59309;DHT22;48433;53.016;-2.260;2022-07-18T16:03:48;40.70;20.20
59309;DHT22;48433;53.016;-2.260;2022-07-18T16:06:18;40.70;20.40
59309;DHT22;48433;53.016;-2.260;2022-07-18T16:08:51;40.70;20.50
59309;DHT22;48433;53.016;-2.260;2022-07-18T16:11:20;40.70;20.60
59309;DHT22;48433;53.016;-2.260;2022-07-18T16:14:20;40.40;20.90
59309;DHT22;48433;53.016;-2.260;2022-07-18T16:16:48;40.20;20.70
59309;DHT22;48433;53.016;-2.260;2022-07-18T16:19:16;40.10;21.00
59309;DHT22;48433;53.016;-2.260;2022-07-18T16:22:08;40.10;21.30
59309;DHT22;48433;53.016;-2.260;2022-07-18T16:24:40;40.20;21.40
59309;DHT22;48433;53.016;-2.260;2022-07-18T16:27:08;40.20;21.50
59309;DHT22;48433;53.016;-2.260;2022-07-18T16:29:38;40.20;21.60
59309;DHT22;48433;53.016;-2.260;2022-07-18T16:32:07;40.20;22.10
59309;DHT22;48433;53.016;-2.260;2022-07-18T16:34:36;40.20;22.00
59309;DHT22;48433;53.016;-2.260;2022-07-18T16:37:04;39.90;21.80
59309;DHT22;48433;53.016;-2.260;2022-07-18T16:39:32;39.90;22.30
59309;DHT22;48433;53.016;-2.260;2022-07-18T16:42:00;39.70;22.50
59309;DHT22;48433;53.016;-2.260;2022-07-18T17:32:03;36.30;25.90
59309;DHT22;48433;53.016;-2.260;2022-07-18T17:34:32;36.20;26.00
59309;DHT22;48433;53.016;-2.260;2022-07-18T17:37:01;36.20;26.00
59309;DHT22;48433;53.016;-2.260;2022-07-18T17:39:30;36.10;26.00
59309;DHT22;48433;53.016;-2.260;2022-07-18T17:41:58;36.10;26.10
59309;DHT22;48433;53.016;-2.260;2022-07-18T17:44:26;36.10;26.30
59309;DHT22;48433;53.016;-2.260;2022-07-18T17:46:55;36.00;26.40
59309;DHT22;48433;53.016;-2.260;2022-07-18T17:49:23;35.90;26.40
59309;DHT22;48433;53.016;-2.260;2022-07-18T17:51:51;35.80;26.60
59309;DHT22;48433;53.016;-2.260;2022-07-18T17:54:21;35.80;27.00
59309;DHT22;48433;53.016;-2.260;2022-07-18T17:56:49;35.70;27.10
59309;DHT22;48433;53.016;-2.260;2022-07-18T17:59:17;35.60;27.30
59309;DHT22;48433;53.016;-2.260;2022-07-18T18:01:45;35.50;27.40
59309;DHT22;48433;53.016;-2.260;2022-07-18T18:04:13;35.30;27.40
59309;DHT22;48433;53.016;-2.260;2022-07-18T18:06:41;35.20;27.50
59309;DHT22;48433;53.016;-2.260;2022-07-18T18:09:09;35.10;27.70
59309;DHT22;48433;53.016;-2.260;2022-07-18T18:11:37;34.90;27.80
59309;DHT22;48433;53.016;-2.260;2022-07-18T18:14:32;34.80;27.90
59309;DHT22;48433;53.016;-2.260;2022-07-18T18:17:03;34.70;28.10
59309;DHT22;48433;53.016;-2.260;2022-07-18T18:19:34;34.70;28.30
59309;DHT22;48433;53.016;-2.260;2022-07-18T18:22:03;34.50;28.50
59309;DHT22;48433;53.016;-2.260;2022-07-18T18:24:32;34.40;28.80
59309;DHT22;48433;53.016;-2.260;2022-07-18T18:27:00;34.20;29.00
59309;DHT22;48433;53.016;-2.260;2022-07-18T18:29:28;34.10;29.20
59309;DHT22;48433;53.016;-2.260;2022-07-18T18:31:56;34.10;29.40
59309;DHT22;48433;53.016;-2.260;2022-07-18T18:34:24;34.00;29.60
59309;DHT22;48433;53.016;-2.260;2022-07-18T18:36:51;33.90;29.90
59309;DHT22;48433;53.016;-2.260;2022-07-18T18:39:31;33.80;30.20
59309;DHT22;48433;53.016;-2.260;2022-07-18T18:42:01;33.70;30.50
59309;DHT22;48433;53.016;-2.260;2022-07-18T18:44:29;33.60;30.60
59309;DHT22;48433;53.016;-2.260;2022-07-18T18:46:57;33.50;30.70
59309;DHT22;48433;53.016;-2.260;2022-07-18T18:49:25;33.40;31.20
59309;DHT22;48433;53.016;-2.260;2022-07-18T18:51:53;33.30;31.30
59309;DHT22;48433;53.016;-2.260;2022-07-18T18:54:22;33.20;31.60
59309;DHT22;48433;53.016;-2.260;2022-07-18T18:56:51;33.20;31.80
59309;DHT22;48433;53.016;-2.260;2022-07-18T18:59:20;33.10;32.10
59309;DHT22;48433;53.016;-2.260;2022-07-18T19:01:48;33.00;32.50
59309;DHT22;48433;53.016;-2.260;2022-07-18T19:04:16;33.00;32.70
59309;DHT22;48433;53.016;-2.260;2022-07-18T19:06:44;32.90;33.50
59309;DHT22;48433;53.016;-2.260;2022-07-18T19:09:13;32.80;34.60
59309;DHT22;48433;53.016;-2.260;2022-07-18T19:11:45;32.70;35.70
59309;DHT22;48433;53.016;-2.260;2022-07-18T19:14:15;32.50;36.40
59309;DHT22;48433;53.016;-2.260;2022-07-18T19:16:43;32.30;37.00
59309;DHT22;48433;53.016;-2.260;2022-07-18T19:19:12;32.00;37.80
59309;DHT22;48433;53.016;-2.260;2022-07-18T19:21:40;31.90;38.40
59309;DHT22;48433;53.016;-2.260;2022-07-18T19:24:08;31.70;39.00
59309;DHT22;48433;53.016;-2.260;2022-07-18T19:26:36;31.60;40.40
59309;DHT22;48433;53.016;-2.260;2022-07-18T19:29:06;31.30;41.30
59309;DHT22;48433;53.016;-2.260;2022-07-18T19:31:54;31.20;42.00
59309;DHT22;48433;53.016;-2.260;2022-07-18T19:34:23;31.00;42.60
59309;DHT22;48433;53.016;-2.260;2022-07-18T19:36:51;30.80;43.20
59309;DHT22;48433;53.016;-2.260;2022-07-18T19:39:24;30.60;43.60
59309;DHT22;48433;53.016;-2.260;2022-07-18T19:41:56;30.50;44.10
59309;DHT22;48433;53.016;-2.260;2022-07-18T19:45:02;30.30;44.40
59309;DHT22;48433;53.016;-2.260;2022-07-18T19:47:30;30.10;44.60
59309;DHT22;48433;53.016;-2.260;2022-07-18T19:49:58;30.00;44.40
59309;DHT22;48433;53.016;-2.260;2022-07-18T19:52:27;29.90;44.10
59309;DHT22;48433;53.016;-2.260;2022-07-18T19:54:58;29.90;44.00
59309;DHT22;48433;53.016;-2.260;2022-07-18T19:57:26;29.80;45.30
59309;DHT22;48433;53.016;-2.260;2022-07-18T20:00:06;29.80;43.90
59309;DHT22;48433;53.016;-2.260;2022-07-18T20:02:39;29.70;44.00
59309;DHT22;48433;53.016;-2.260;2022-07-18T20:05:08;29.60;43.40
59309;DHT22;48433;53.016;-2.260;2022-07-18T20:07:38;29.50;43.00
59309;DHT22;48433;53.016;-2.260;2022-07-18T20:10:08;29.40;42.60
59309;DHT22;48433;53.016;-2.260;2022-07-18T20:12:36;29.40;42.30
59309;DHT22;48433;53.016;-2.260;2022-07-18T20:15:05;29.40;42.30
59309;DHT22;48433;53.016;-2.260;2022-07-18T20:17:33;29.40;42.30
59309;DHT22;48433;53.016;-2.260;2022-07-18T20:20:16;29.30;42.10
59309;DHT22;48433;53.016;-2.260;2022-07-18T20:22:44;29.20;42.00
59309;DHT22;48433;53.016;-2.260;2022-07-18T20:25:33;29.20;42.40
59309;DHT22;48433;53.016;-2.260;2022-07-18T20:28:02;29.10;42.00
59309;DHT22;48433;53.016;-2.260;2022-07-18T20:30:30;29.00;41.70
59309;DHT22;48433;53.016;-2.260;2022-07-18T20:33:04;29.00;41.80
59309;DHT22;48433;53.016;-2.260;2022-07-18T20:35:32;28.90;41.90
59309;DHT22;48433;53.016;-2.260;2022-07-18T20:38:05;28.80;42.10
59309;DHT22;48433;53.016;-2.260;2022-07-18T20:40:37;28.70;42.70
59309;DHT22;48433;53.016;-2.260;2022-07-18T20:43:05;28.60;43.00
59309;DHT22;48433;53.016;-2.260;2022-07-18T20:45:33;28.50;43.00
59309;DHT22;48433;53.016;-2.260;2022-07-18T20:48:01;28.40;43.10
59309;DHT22;48433;53.016;-2.260;2022-07-18T20:50:30;28.20;43.80
59309;DHT22;48433;53.016;-2.260;2022-07-18T20:52:58;28.10;45.00
59309;DHT22;48433;53.016;-2.260;2022-07-18T20:55:26;27.90;46.50
59309;DHT22;48433;53.016;-2.260;2022-07-18T20:57:54;27.70;46.60
59309;DHT22;48433;53.016;-2.260;2022-07-18T21:00:22;27.40;46.90
59309;DHT22;48433;53.016;-2.260;2022-07-18T21:02:50;27.20;47.20
59309;DHT22;48433;53.016;-2.260;2022-07-18T21:05:19;27.10;47.80
59309;DHT22;48433;53.016;-2.260;2022-07-18T21:07:47;26.90;48.30
59309;DHT22;48433;53.016;-2.260;2022-07-18T21:10:16;26.70;49.00
59309;DHT22;48433;53.016;-2.260;2022-07-18T21:12:44;26.60;49.40
59309;DHT22;48433;53.016;-2.260;2022-07-18T21:15:13;26.40;49.60
59309;DHT22;48433;53.016;-2.260;2022-07-18T21:20:15;26.00;50.60
59309;DHT22;48433;53.016;-2.260;2022-07-18T21:22:43;25.80;50.70
59309;DHT22;48433;53.016;-2.260;2022-07-18T21:25:15;25.60;50.70
59309;DHT22;48433;53.016;-2.260;2022-07-18T21:27:43;25.60;50.60
59309;DHT22;48433;53.016;-2.260;2022-07-18T21:30:13;25.50;51.10
59309;DHT22;48433;53.016;-2.260;2022-07-18T21:32:44;25.50;51.40
59309;DHT22;48433;53.016;-2.260;2022-07-18T21:35:15;25.50;51.10
59309;DHT22;48433;53.016;-2.260;2022-07-18T21:37:45;25.50;50.80
59309;DHT22;48433;53.016;-2.260;2022-07-18T21:40:16;25.50;50.90
59309;DHT22;48433;53.016;-2.260;2022-07-18T21:42:45;25.50;51.30
59309;DHT22;48433;53.016;-2.260;2022-07-18T21:45:15;25.40;51.80
59309;DHT22;48433;53.016;-2.260;2022-07-18T21:47:45;25.30;52.20
59309;DHT22;48433;53.016;-2.260;2022-07-18T21:50:13;25.20;52.80
59309;DHT22;48433;53.016;-2.260;2022-07-18T21:52:59;25.00;53.30
59309;DHT22;48433;53.016;-2.260;2022-07-18T21:55:31;24.90;54.10
59309;DHT22;48433;53.016;-2.260;2022-07-18T21:57:59;25.30;55.20
59309;DHT22;48433;53.016;-2.260;2022-07-18T22:00:27;24.60;54.90
59309;DHT22;48433;53.016;-2.260;2022-07-18T22:02:57;24.50;55.70
59309;DHT22;48433;53.016;-2.260;2022-07-18T22:05:25;24.40;55.60
59309;DHT22;48433;53.016;-2.260;2022-07-18T22:07:53;24.30;56.80
59309;DHT22;48433;53.016;-2.260;2022-07-18T22:10:24;24.20;56.80
59309;DHT22;48433;53.016;-2.260;2022-07-18T22:12:52;24.20;57.10
59309;DHT22;48433;53.016;-2.260;2022-07-18T22:15:20;24.20;57.10
59309;DHT22;48433;53.016;-2.260;2022-07-18T22:17:48;24.10;57.10
59309;DHT22;48433;53.016;-2.260;2022-07-18T22:20:16;24.10;57.30
59309;DHT22;48433;53.016;-2.260;2022-07-18T22:22:44;24.10;58.10
59309;DHT22;48433;53.016;-2.260;2022-07-18T22:25:12;24.00;57.60
59309;DHT22;48433;53.016;-2.260;2022-07-18T22:27:40;24.00;57.40
59309;DHT22;48433;53.016;-2.260;2022-07-18T22:30:12;24.00;57.80
59309;DHT22;48433;53.016;-2.260;2022-07-18T22:32:45;24.00;58.80
59309;DHT22;48433;53.016;-2.260;2022-07-18T22:35:13;23.90;59.10
59309;DHT22;48433;53.016;-2.260;2022-07-18T22:37:43;23.80;59.40
59309;DHT22;48433;53.016;-2.260;2022-07-18T22:40:13;23.60;60.10
59309;DHT22;48433;53.016;-2.260;2022-07-18T22:42:51;23.60;61.90
59309;DHT22;48433;53.016;-2.260;2022-07-18T22:45:20;23.50;62.90
59309;DHT22;48433;53.016;-2.260;2022-07-18T22:47:51;23.40;63.90
59309;DHT22;48433;53.016;-2.260;2022-07-18T22:50:19;23.50;64.90
59309;DHT22;48433;53.016;-2.260;2022-07-18T22:52:47;23.50;65.50
59309;DHT22;48433;53.016;-2.260;2022-07-18T22:55:15;23.50;66.20
59309;DHT22;48433;53.016;-2.260;2022-07-18T22:57:43;23.50;66.50
59309;DHT22;48433;53.016;-2.260;2022-07-18T23:00:11;23.50;67.00
59309;DHT22;48433;53.016;-2.260;2022-07-18T23:02:40;23.50;67.90
59309;DHT22;48433;53.016;-2.260;2022-07-18T23:05:08;23.30;69.30
59309;DHT22;48433;53.016;-2.260;2022-07-18T23:08:01;23.20;71.00
59309;DHT22;48433;53.016;-2.260;2022-07-18T23:10:31;23.10;72.50
59309;DHT22;48433;53.016;-2.260;2022-07-18T23:13:00;23.10;73.50
59309;DHT22;48433;53.016;-2.260;2022-07-18T23:15:30;23.00;74.60
59309;DHT22;48433;53.016;-2.260;2022-07-18T23:17:58;22.90;75.50
59309;DHT22;48433;53.016;-2.260;2022-07-18T23:20:26;22.90;76.40
59309;DHT22;48433;53.016;-2.260;2022-07-18T23:22:57;22.80;77.50
59309;DHT22;48433;53.016;-2.260;2022-07-18T23:25:25;22.80;78.20
59309;DHT22;48433;53.016;-2.260;2022-07-18T23:27:53;22.70;78.70
59309;DHT22;48433;53.016;-2.260;2022-07-18T23:30:21;22.70;80.10
59309;DHT22;48433;53.016;-2.260;2022-07-18T23:32:50;22.60;80.00
59309;DHT22;48433;53.016;-2.260;2022-07-18T23:35:18;22.50;80.80
59309;DHT22;48433;53.016;-2.260;2022-07-18T23:37:45;22.50;81.70
59309;DHT22;48433;53.016;-2.260;2022-07-18T23:40:14;22.40;82.70
59309;DHT22;48433;53.016;-2.260;2022-07-18T23:42:42;22.30;83.70
59309;DHT22;48433;53.016;-2.260;2022-07-18T23:45:11;22.30;85.30
59309;DHT22;48433;53.016;-2.260;2022-07-18T23:47:40;22.20;85.40
59309;DHT22;48433;53.016;-2.260;2022-07-18T23:50:11;22.10;86.00
59309;DHT22;48433;53.016;-2.260;2022-07-18T23:52:42;22.00;86.70
59309;DHT22;48433;53.016;-2.260;2022-07-18T23:55:12;21.90;87.30
59309;DHT22;48433;53.016;-2.260;2022-07-18T23:57:41;22.00;87.70
